sensor_id;sensor_type;location;lat;lon;timestamp;temperature;humidity
563;DHT22;266;49.514;8.294;2023-06-22T00:01:00;22.50;99.90
563;DHT22;266;49.514;8.294;2023-06-22T00:03:28;22.40;99.90
563;DHT22;266;49.514;8.294;2023-06-22T00:05:56;22.50;99.90
563;DHT22;266;49.514;8.294;2023-06-22T00:08:24;22.50;99.90
563;DHT22;266;49.514;8.294;2023-06-22T00:10:52;22.50;99.90
563;DHT22;266;49.514;8.294;2023-06-22T00:13:21;22.50;99.90
563;DHT22;266;49.514;8.294;2023-06-22T00:15:50;22.50;99.90
563;DHT22;266;49.514;8.294;2023-06-22T00:18:18;22.50;99.90
563;DHT22;266;49.514;8.294;2023-06-22T00:20:46;22.50;99.90
563;DHT22;266;49.514;8.294;2023-06-22T00:23:14;22.50;99.90
563;DHT22;266;49.514;8.294;2023-06-22T00:25:44;22.50;99.90
563;DHT22;266;49.514;8.294;2023-06-22T00:28:12;22.50;99.90
563;DHT22;266;49.514;8.294;2023-06-22T00:30:40;22.50;99.90
563;DHT22;266;49.514;8.294;2023-06-22T00:33:09;22.60;99.90
563;DHT22;266;49.514;8.294;2023-06-22T00:35:37;22.60;99.90
563;DHT22;266;49.514;8.294;2023-06-22T00:38:08;22.70;99.90
563;DHT22;266;49.514;8.294;2023-06-22T00:40:36;22.70;99.90
563;DHT22;266;49.514;8.294;2023-06-22T00:43:05;22.80;99.90
563;DHT22;266;49.514;8.294;2023-06-22T00:45:33;22.90;99.90
563;DHT22;266;49.514;8.294;2023-06-22T00:48:02;22.90;99.90
563;DHT22;266;49.514;8.294;2023-06-22T00:50:33;22.80;99.90
563;DHT22;266;49.514;8.294;2023-06-22T00:53:05;22.60;99.90
563;DHT22;266;49.514;8.294;2023-06-22T00:55:36;22.50;99.90
563;DHT22;266;49.514;8.294;2023-06-22T00:58:06;22.30;99.90
563;DHT22;266;49.514;8.294;2023-06-22T01:00:37;22.10;99.90
563;DHT22;266;49.514;8.294;2023-06-22T01:03:05;21.90;99.90
563;DHT22;266;49.514;8.294;2023-06-22T01:05:38;21.80;99.90
563;DHT22;266;49.514;8.294;2023-06-22T01:08:15;21.70;99.90
563;DHT22;266;49.514;8.294;2023-06-22T01:10:48;21.60;99.90
563;DHT22;266;49.514;8.294;2023-06-22T01:13:26;21.50;99.90
563;DHT22;266;49.514;8.294;2023-06-22T01:16:00;21.50;99.90
563;DHT22;266;49.514;8.294;2023-06-22T01:18:31;21.50;99.90
563;DHT22;266;49.514;8.294;2023-06-22T01:21:01;21.50;99.90
563;DHT22;266;49.514;8.294;2023-06-22T01:23:49;21.50;99.90
563;DHT22;266;49.514;8.294;2023-06-22T01:26:22;21.50;99.90
563;DHT22;266;49.514;8.294;2023-06-22T01:28:57;21.50;99.90
563;DHT22;266;49.514;8.294;2023-06-22T01:31:27;21.50;99.90
563;DHT22;266;49.514;8.294;2023-06-22T01:33:59;21.40;99.90
563;DHT22;266;49.514;8.294;2023-06-22T01:36:28;21.40;99.90
563;DHT22;266;49.514;8.294;2023-06-22T01:38:57;21.30;99.90
563;DHT22;266;49.514;8.294;2023-06-22T01:41:27;21.30;99.90
563;DHT22;266;49.514;8.294;2023-06-22T01:43:58;21.40;99.90
563;DHT22;266;49.514;8.294;2023-06-22T01:46:27;21.30;99.90
563;DHT22;266;49.514;8.294;2023-06-22T01:48:55;21.30;99.90
563;DHT22;266;49.514;8.294;2023-06-22T01:51:24;21.30;99.90
563;DHT22;266;49.514;8.294;2023-06-22T01:53:51;21.20;99.90
563;DHT22;266;49.514;8.294;2023-06-22T01:56:20;21.20;99.90
563;DHT22;266;49.514;8.294;2023-06-22T01:58:53;21.20;99.90
563;DHT22;266;49.514;8.294;2023-06-22T02:01:35;21.10;99.90
563;DHT22;266;49.514;8.294;2023-06-22T02:04:07;21.10;99.90
563;DHT22;266;49.514;8.294;2023-06-22T02:06:39;21.00;99.90
563;DHT22;266;49.514;8.294;2023-06-22T02:09:12;21.00;99.90
563;DHT22;266;49.514;8.294;2023-06-22T02:11:41;21.00;99.90
563;DHT22;266;49.514;8.294;2023-06-22T02:14:11;21.00;99.90
563;DHT22;266;49.514;8.294;2023-06-22T02:16:42;21.00;99.90
563;DHT22;266;49.514;8.294;2023-06-22T02:19:11;20.90;99.90
563;DHT22;266;49.514;8.294;2023-06-22T02:21:39;20.70;99.90
563;DHT22;266;49.514;8.294;2023-06-22T02:24:07;20.70;99.90
563;DHT22;266;49.514;8.294;2023-06-22T02:26:36;20.50;99.90
563;DHT22;266;49.514;8.294;2023-06-22T02:29:05;20.50;99.90
563;DHT22;266;49.514;8.294;2023-06-22T02:31:32;20.40;99.90
563;DHT22;266;49.514;8.294;2023-06-22T02:34:02;20.40;99.90
563;DHT22;266;49.514;8.294;2023-06-22T02:36:30;20.40;99.90
563;DHT22;266;49.514;8.294;2023-06-22T02:39:00;20.40;99.90
563;DHT22;266;49.514;8.294;2023-06-22T02:41:30;20.50;99.90
563;DHT22;266;49.514;8.294;2023-06-22T02:43:58;20.40;99.90
563;DHT22;266;49.514;8.294;2023-06-22T02:46:26;20.40;99.90
563;DHT22;266;49.514;8.294;2023-06-22T02:48:54;20.40;99.90
563;DHT22;266;49.514;8.294;2023-06-22T02:51:23;20.40;99.90
563;DHT22;266;49.514;8.294;2023-06-22T02:53:51;20.40;99.90
563;DHT22;266;49.514;8.294;2023-06-22T02:56:24;20.30;99.90
563;DHT22;266;49.514;8.294;2023-06-22T02:58:52;20.30;99.90
563;DHT22;266;49.514;8.294;2023-06-22T03:01:20;20.30;99.90
563;DHT22;266;49.514;8.294;2023-06-22T03:03:50;20.20;99.90
563;DHT22;266;49.514;8.294;2023-06-22T03:06:18;20.20;99.90
563;DHT22;266;49.514;8.294;2023-06-22T03:08:52;20.20;99.90
563;DHT22;266;49.514;8.294;2023-06-22T03:11:20;20.20;99.90
563;DHT22;266;49.514;8.294;2023-06-22T03:13:48;20.20;99.90
563;DHT22;266;49.514;8.294;2023-06-22T03:16:19;20.20;99.90
563;DHT22;266;49.514;8.294;2023-06-22T03:18:46;20.20;99.90
563;DHT22;266;49.514;8.294;2023-06-22T03:21:14;20.10;99.90
563;DHT22;266;49.514;8.294;2023-06-22T03:23:43;20.10;99.90
563;DHT22;266;49.514;8.294;2023-06-22T03:26:12;20.00;99.90
563;DHT22;266;49.514;8.294;2023-06-22T03:28:40;20.00;99.90
563;DHT22;266;49.514;8.294;2023-06-22T03:31:08;20.00;99.90
563;DHT22;266;49.514;8.294;2023-06-22T03:33:36;20.00;99.90
563;DHT22;266;49.514;8.294;2023-06-22T03:36:04;20.00;99.90
563;DHT22;266;49.514;8.294;2023-06-22T03:38:32;19.90;99.90
563;DHT22;266;49.514;8.294;2023-06-22T03:41:00;20.00;99.90
563;DHT22;266;49.514;8.294;2023-06-22T03:43:30;19.90;99.90
563;DHT22;266;49.514;8.294;2023-06-22T03:45:58;20.00;99.90
563;DHT22;266;49.514;8.294;2023-06-22T03:48:26;20.00;99.90
563;DHT22;266;49.514;8.294;2023-06-22T03:50:54;20.00;99.90
563;DHT22;266;49.514;8.294;2023-06-22T03:53:22;20.10;99.90
563;DHT22;266;49.514;8.294;2023-06-22T03:55:51;20.10;99.90
563;DHT22;266;49.514;8.294;2023-06-22T03:58:20;20.10;99.90
563;DHT22;266;49.514;8.294;2023-06-22T04:00:50;20.20;99.90
563;DHT22;266;49.514;8.294;2023-06-22T04:03:19;20.30;99.90
563;DHT22;266;49.514;8.294;2023-06-22T04:05:48;20.30;99.90
563;DHT22;266;49.514;8.294;2023-06-22T04:08:16;20.40;99.90
563;DHT22;266;49.514;8.294;2023-06-22T04:10:44;20.40;99.90
563;DHT22;266;49.514;8.294;2023-06-22T04:13:12;20.40;99.90
563;DHT22;266;49.514;8.294;2023-06-22T04:15:40;20.40;99.90
563;DHT22;266;49.514;8.294;2023-06-22T04:18:09;20.40;99.90
563;DHT22;266;49.514;8.294;2023-06-22T04:20:37;20.40;99.90
563;DHT22;266;49.514;8.294;2023-06-22T04:23:05;20.40;99.90
563;DHT22;266;49.514;8.294;2023-06-22T04:25:33;20.40;99.90
563;DHT22;266;49.514;8.294;2023-06-22T04:28:03;20.50;99.90
563;DHT22;266;49.514;8.294;2023-06-22T04:30:33;20.40;99.90
563;DHT22;266;49.514;8.294;2023-06-22T04:33:01;20.50;99.90
563;DHT22;266;49.514;8.294;2023-06-22T04:35:30;20.50;99.90
563;DHT22;266;49.514;8.294;2023-06-22T04:37:58;20.50;99.90
563;DHT22;266;49.514;8.294;2023-06-22T04:40:26;20.50;99.90
563;DHT22;266;49.514;8.294;2023-06-22T04:42:56;20.50;99.90
563;DHT22;266;49.514;8.294;2023-06-22T04:45:28;20.50;99.90
563;DHT22;266;49.514;8.294;2023-06-22T04:47:56;20.50;99.90
563;DHT22;266;49.514;8.294;2023-06-22T04:50:24;20.50;99.90
563;DHT22;266;49.514;8.294;2023-06-22T04:52:55;20.50;99.90
563;DHT22;266;49.514;8.294;2023-06-22T04:55:24;20.50;99.90
563;DHT22;266;49.514;8.294;2023-06-22T04:57:52;20.60;99.90
563;DHT22;266;49.514;8.294;2023-06-22T05:00:20;20.60;99.90
563;DHT22;266;49.514;8.294;2023-06-22T05:02:49;20.60;99.90
563;DHT22;266;49.514;8.294;2023-06-22T05:05:22;20.60;99.90
563;DHT22;266;49.514;8.294;2023-06-22T05:07:51;20.60;99.90
563;DHT22;266;49.514;8.294;2023-06-22T05:10:22;20.70;99.90
563;DHT22;266;49.514;8.294;2023-06-22T05:12:51;20.70;99.90
563;DHT22;266;49.514;8.294;2023-06-22T05:15:19;20.80;99.90
563;DHT22;266;49.514;8.294;2023-06-22T05:17:48;20.80;99.90
563;DHT22;266;49.514;8.294;2023-06-22T05:20:16;20.90;99.90
563;DHT22;266;49.514;8.294;2023-06-22T05:22:45;20.90;99.90
563;DHT22;266;49.514;8.294;2023-06-22T05:25:13;21.00;99.90
563;DHT22;266;49.514;8.294;2023-06-22T05:27:42;21.00;99.90
563;DHT22;266;49.514;8.294;2023-06-22T05:30:11;21.10;99.90
563;DHT22;266;49.514;8.294;2023-06-22T05:32:56;21.20;99.90
563;DHT22;266;49.514;8.294;2023-06-22T05:35:25;21.30;99.90
563;DHT22;266;49.514;8.294;2023-06-22T05:37:52;21.40;99.90
563;DHT22;266;49.514;8.294;2023-06-22T05:40:20;21.40;99.90
563;DHT22;266;49.514;8.294;2023-06-22T05:42:50;21.50;99.90
563;DHT22;266;49.514;8.294;2023-06-22T05:45:18;21.60;99.90
563;DHT22;266;49.514;8.294;2023-06-22T05:47:46;21.60;99.90
563;DHT22;266;49.514;8.294;2023-06-22T05:50:14;21.70;99.90
563;DHT22;266;49.514;8.294;2023-06-22T05:52:41;21.80;99.90
563;DHT22;266;49.514;8.294;2023-06-22T05:55:09;21.80;99.90
563;DHT22;266;49.514;8.294;2023-06-22T05:57:37;21.90;99.90
563;DHT22;266;49.514;8.294;2023-06-22T06:00:08;22.00;99.90
563;DHT22;266;49.514;8.294;2023-06-22T06:02:39;22.20;99.90
563;DHT22;266;49.514;8.294;2023-06-22T06:05:11;22.20;99.90
563;DHT22;266;49.514;8.294;2023-06-22T06:07:40;22.30;99.90
563;DHT22;266;49.514;8.294;2023-06-22T06:10:09;22.40;99.90
563;DHT22;266;49.514;8.294;2023-06-22T06:12:37;22.50;99.90
563;DHT22;266;49.514;8.294;2023-06-22T06:15:07;22.60;99.90
563;DHT22;266;49.514;8.294;2023-06-22T06:17:45;22.60;99.90
563;DHT22;266;49.514;8.294;2023-06-22T06:20:14;22.70;99.90
563;DHT22;266;49.514;8.294;2023-06-22T06:22:42;22.80;99.90
563;DHT22;266;49.514;8.294;2023-06-22T06:25:10;22.90;99.90
563;DHT22;266;49.514;8.294;2023-06-22T06:27:46;23.00;99.90
563;DHT22;266;49.514;8.294;2023-06-22T06:30:18;23.10;99.90
563;DHT22;266;49.514;8.294;2023-06-22T06:32:56;23.20;99.90
563;DHT22;266;49.514;8.294;2023-06-22T06:35:25;23.30;99.90
563;DHT22;266;49.514;8.294;2023-06-22T06:37:53;23.40;99.90
563;DHT22;266;49.514;8.294;2023-06-22T06:40:21;23.50;99.90
563;DHT22;266;49.514;8.294;2023-06-22T06:42:49;23.60;99.90
563;DHT22;266;49.514;8.294;2023-06-22T06:45:21;23.70;99.90
563;DHT22;266;49.514;8.294;2023-06-22T06:47:51;23.80;99.90
563;DHT22;266;49.514;8.294;2023-06-22T06:50:20;23.80;99.90
563;DHT22;266;49.514;8.294;2023-06-22T06:52:48;23.90;99.90
563;DHT22;266;49.514;8.294;2023-06-22T06:55:16;23.90;99.90
563;DHT22;266;49.514;8.294;2023-06-22T06:57:47;24.00;99.90
563;DHT22;266;49.514;8.294;2023-06-22T07:00:17;24.10;99.90
563;DHT22;266;49.514;8.294;2023-06-22T07:02:47;24.20;99.90
563;DHT22;266;49.514;8.294;2023-06-22T07:05:15;24.30;99.90
563;DHT22;266;49.514;8.294;2023-06-22T07:07:43;24.30;99.90
563;DHT22;266;49.514;8.294;2023-06-22T07:10:11;24.40;99.90
563;DHT22;266;49.514;8.294;2023-06-22T07:12:39;24.50;99.90
563;DHT22;266;49.514;8.294;2023-06-22T07:15:09;24.60;99.90
563;DHT22;266;49.514;8.294;2023-06-22T07:17:38;24.70;99.90
563;DHT22;266;49.514;8.294;2023-06-22T07:20:10;24.70;99.90
563;DHT22;266;49.514;8.294;2023-06-22T07:22:40;24.80;99.90
563;DHT22;266;49.514;8.294;2023-06-22T07:25:09;24.80;99.90
563;DHT22;266;49.514;8.294;2023-06-22T07:27:45;24.90;99.90
563;DHT22;266;49.514;8.294;2023-06-22T07:30:13;25.00;99.90
563;DHT22;266;49.514;8.294;2023-06-22T07:32:41;25.00;99.90
563;DHT22;266;49.514;8.294;2023-06-22T07:35:10;25.10;99.90
563;DHT22;266;49.514;8.294;2023-06-22T07:37:38;25.10;99.90
563;DHT22;266;49.514;8.294;2023-06-22T07:40:07;25.30;99.90
563;DHT22;266;49.514;8.294;2023-06-22T07:42:36;25.40;99.90
563;DHT22;266;49.514;8.294;2023-06-22T07:45:05;25.40;99.90
563;DHT22;266;49.514;8.294;2023-06-22T07:47:35;25.50;99.90
563;DHT22;266;49.514;8.294;2023-06-22T07:50:04;25.60;99.90
563;DHT22;266;49.514;8.294;2023-06-22T07:52:33;25.60;99.90
563;DHT22;266;49.514;8.294;2023-06-22T07:55:02;25.80;99.90
563;DHT22;266;49.514;8.294;2023-06-22T07:57:30;25.90;99.90
563;DHT22;266;49.514;8.294;2023-06-22T08:00:02;26.00;99.90
563;DHT22;266;49.514;8.294;2023-06-22T08:02:38;26.10;99.90
563;DHT22;266;49.514;8.294;2023-06-22T08:05:06;26.20;99.90
563;DHT22;266;49.514;8.294;2023-06-22T08:07:50;26.40;99.90
563;DHT22;266;49.514;8.294;2023-06-22T08:10:19;26.50;99.90
563;DHT22;266;49.514;8.294;2023-06-22T08:12:47;26.60;99.90
563;DHT22;266;49.514;8.294;2023-06-22T08:15:15;26.80;99.90
563;DHT22;266;49.514;8.294;2023-06-22T08:17:43;27.00;99.90
563;DHT22;266;49.514;8.294;2023-06-22T08:20:12;27.30;99.90
563;DHT22;266;49.514;8.294;2023-06-22T08:22:40;27.30;99.90
563;DHT22;266;49.514;8.294;2023-06-22T08:25:10;27.30;99.90
563;DHT22;266;49.514;8.294;2023-06-22T08:27:39;27.40;99.90
563;DHT22;266;49.514;8.294;2023-06-22T08:30:09;27.30;99.90
563;DHT22;266;49.514;8.294;2023-06-22T08:32:38;27.40;99.90
563;DHT22;266;49.514;8.294;2023-06-22T08:35:07;27.60;99.90
563;DHT22;266;49.514;8.294;2023-06-22T08:37:36;27.80;99.90
563;DHT22;266;49.514;8.294;2023-06-22T08:40:07;28.10;99.90
563;DHT22;266;49.514;8.294;2023-06-22T08:42:37;28.50;99.90
563;DHT22;266;49.514;8.294;2023-06-22T08:45:06;28.80;99.90
563;DHT22;266;49.514;8.294;2023-06-22T08:47:34;28.90;99.90
563;DHT22;266;49.514;8.294;2023-06-22T08:50:03;28.80;99.90
563;DHT22;266;49.514;8.294;2023-06-22T08:52:31;28.90;99.90
563;DHT22;266;49.514;8.294;2023-06-22T08:54:59;29.00;99.90
563;DHT22;266;49.514;8.294;2023-06-22T08:57:27;29.40;99.90
563;DHT22;266;49.514;8.294;2023-06-22T08:59:56;29.80;99.90
563;DHT22;266;49.514;8.294;2023-06-22T09:02:25;30.10;99.90
563;DHT22;266;49.514;8.294;2023-06-22T09:04:58;30.20;99.90
563;DHT22;266;49.514;8.294;2023-06-22T09:07:27;30.10;99.90
563;DHT22;266;49.514;8.294;2023-06-22T09:09:56;29.70;99.90
563;DHT22;266;49.514;8.294;2023-06-22T09:12:28;29.40;99.90
563;DHT22;266;49.514;8.294;2023-06-22T09:14:59;29.30;99.90
563;DHT22;266;49.514;8.294;2023-06-22T09:17:27;29.20;99.90
563;DHT22;266;49.514;8.294;2023-06-22T09:19:55;29.30;99.90
563;DHT22;266;49.514;8.294;2023-06-22T09:22:23;29.40;99.90
563;DHT22;266;49.514;8.294;2023-06-22T09:24:55;29.60;99.90
563;DHT22;266;49.514;8.294;2023-06-22T09:27:23;30.00;99.90
563;DHT22;266;49.514;8.294;2023-06-22T09:29:51;30.30;99.90
563;DHT22;266;49.514;8.294;2023-06-22T09:32:21;30.60;99.90
563;DHT22;266;49.514;8.294;2023-06-22T09:34:48;31.00;99.90
563;DHT22;266;49.514;8.294;2023-06-22T09:37:16;31.20;99.90
563;DHT22;266;49.514;8.294;2023-06-22T09:39:44;31.20;99.90
563;DHT22;266;49.514;8.294;2023-06-22T09:42:12;31.60;99.90
563;DHT22;266;49.514;8.294;2023-06-22T09:44:40;31.80;99.90
563;DHT22;266;49.514;8.294;2023-06-22T09:47:08;31.60;99.90
563;DHT22;266;49.514;8.294;2023-06-22T09:49:37;31.30;99.90
563;DHT22;266;49.514;8.294;2023-06-22T09:52:14;31.40;99.90
563;DHT22;266;49.514;8.294;2023-06-22T09:54:42;31.70;99.90
563;DHT22;266;49.514;8.294;2023-06-22T09:57:10;31.30;99.90
563;DHT22;266;49.514;8.294;2023-06-22T09:59:38;31.00;99.90
563;DHT22;266;49.514;8.294;2023-06-22T10:02:07;30.80;99.90
563;DHT22;266;49.514;8.294;2023-06-22T10:04:35;30.70;99.90
563;DHT22;266;49.514;8.294;2023-06-22T10:07:05;30.70;99.90
563;DHT22;266;49.514;8.294;2023-06-22T10:09:33;30.70;99.90
563;DHT22;266;49.514;8.294;2023-06-22T10:12:01;30.90;99.90
563;DHT22;266;49.514;8.294;2023-06-22T10:14:29;31.10;99.90
563;DHT22;266;49.514;8.294;2023-06-22T10:16:57;31.30;99.90
563;DHT22;266;49.514;8.294;2023-06-22T10:19:26;31.50;99.90
563;DHT22;266;49.514;8.294;2023-06-22T10:21:53;31.70;99.90
563;DHT22;266;49.514;8.294;2023-06-22T10:24:23;31.80;99.90
563;DHT22;266;49.514;8.294;2023-06-22T10:26:51;31.60;99.90
563;DHT22;266;49.514;8.294;2023-06-22T10:29:20;31.40;99.90
563;DHT22;266;49.514;8.294;2023-06-22T10:31:48;31.50;99.90
563;DHT22;266;49.514;8.294;2023-06-22T10:34:16;31.50;99.90
563;DHT22;266;49.514;8.294;2023-06-22T10:36:44;31.50;99.90
563;DHT22;266;49.514;8.294;2023-06-22T10:39:15;31.60;99.90
563;DHT22;266;49.514;8.294;2023-06-22T10:41:44;31.60;99.90
563;DHT22;266;49.514;8.294;2023-06-22T10:44:12;31.70;99.90
563;DHT22;266;49.514;8.294;2023-06-22T10:46:40;31.80;99.90
563;DHT22;266;49.514;8.294;2023-06-22T10:49:08;31.90;99.90
563;DHT22;266;49.514;8.294;2023-06-22T10:51:36;32.00;99.90
563;DHT22;266;49.514;8.294;2023-06-22T10:54:04;32.10;99.90
563;DHT22;266;49.514;8.294;2023-06-22T10:56:32;32.00;99.90
563;DHT22;266;49.514;8.294;2023-06-22T10:59:01;31.80;99.90
563;DHT22;266;49.514;8.294;2023-06-22T11:01:29;31.80;99.90
563;DHT22;266;49.514;8.294;2023-06-22T11:04:04;31.80;99.90
563;DHT22;266;49.514;8.294;2023-06-22T11:06:32;31.70;99.90
563;DHT22;266;49.514;8.294;2023-06-22T11:09:00;31.50;99.90
563;DHT22;266;49.514;8.294;2023-06-22T11:11:32;31.30;99.90
563;DHT22;266;49.514;8.294;2023-06-22T11:14:02;31.20;99.90
563;DHT22;266;49.514;8.294;2023-06-22T11:16:30;31.20;99.90
563;DHT22;266;49.514;8.294;2023-06-22T11:18:58;31.20;99.90
563;DHT22;266;49.514;8.294;2023-06-22T11:21:25;31.20;99.90
563;DHT22;266;49.514;8.294;2023-06-22T11:23:53;31.20;99.90
563;DHT22;266;49.514;8.294;2023-06-22T11:26:28;31.00;99.90
563;DHT22;266;49.514;8.294;2023-06-22T11:29:06;31.00;99.90
563;DHT22;266;49.514;8.294;2023-06-22T11:31:39;31.00;99.90
563;DHT22;266;49.514;8.294;2023-06-22T11:34:09;30.80;99.90
563;DHT22;266;49.514;8.294;2023-06-22T11:36:37;30.80;99.90
563;DHT22;266;49.514;8.294;2023-06-22T11:39:05;30.80;99.90
563;DHT22;266;49.514;8.294;2023-06-22T11:41:33;31.00;99.90
563;DHT22;266;49.514;8.294;2023-06-22T11:44:01;31.00;99.90
563;DHT22;266;49.514;8.294;2023-06-22T11:46:35;31.00;99.90
563;DHT22;266;49.514;8.294;2023-06-22T11:49:03;30.80;99.90
563;DHT22;266;49.514;8.294;2023-06-22T11:51:31;30.90;99.90
563;DHT22;266;49.514;8.294;2023-06-22T11:53:59;30.90;99.90
563;DHT22;266;49.514;8.294;2023-06-22T11:56:27;30.80;99.90
563;DHT22;266;49.514;8.294;2023-06-22T11:58:55;30.70;99.90
563;DHT22;266;49.514;8.294;2023-06-22T12:01:23;30.60;99.90
563;DHT22;266;49.514;8.294;2023-06-22T12:03:52;30.50;99.90
563;DHT22;266;49.514;8.294;2023-06-22T12:06:20;30.50;99.90
563;DHT22;266;49.514;8.294;2023-06-22T12:08:50;30.60;99.90
563;DHT22;266;49.514;8.294;2023-06-22T12:11:17;30.60;99.90
563;DHT22;266;49.514;8.294;2023-06-22T12:13:45;30.60;99.90
563;DHT22;266;49.514;8.294;2023-06-22T12:16:13;30.70;99.90
563;DHT22;266;49.514;8.294;2023-06-22T12:18:41;30.90;99.90
563;DHT22;266;49.514;8.294;2023-06-22T12:21:11;31.10;99.90
563;DHT22;266;49.514;8.294;2023-06-22T12:23:38;31.50;99.90
563;DHT22;266;49.514;8.294;2023-06-22T12:26:06;31.70;99.90
563;DHT22;266;49.514;8.294;2023-06-22T12:28:34;31.90;99.90
563;DHT22;266;49.514;8.294;2023-06-22T12:31:03;32.10;99.90
563;DHT22;266;49.514;8.294;2023-06-22T12:33:31;32.20;99.90
563;DHT22;266;49.514;8.294;2023-06-22T12:35:58;32.50;99.90
563;DHT22;266;49.514;8.294;2023-06-22T12:38:28;32.60;99.90
563;DHT22;266;49.514;8.294;2023-06-22T12:40:56;32.90;99.90
563;DHT22;266;49.514;8.294;2023-06-22T12:43:23;33.10;99.90
563;DHT22;266;49.514;8.294;2023-06-22T12:45:51;32.80;99.90
563;DHT22;266;49.514;8.294;2023-06-22T12:48:21;32.50;99.90
563;DHT22;266;49.514;8.294;2023-06-22T12:50:49;32.50;99.90
563;DHT22;266;49.514;8.294;2023-06-22T12:53:18;32.90;99.90
563;DHT22;266;49.514;8.294;2023-06-22T12:55:47;33.00;99.90
563;DHT22;266;49.514;8.294;2023-06-22T12:58:17;33.00;99.90
563;DHT22;266;49.514;8.294;2023-06-22T13:00:46;33.10;99.90
563;DHT22;266;49.514;8.294;2023-06-22T13:03:14;33.10;99.90
563;DHT22;266;49.514;8.294;2023-06-22T13:05:42;32.80;99.90
563;DHT22;266;49.514;8.294;2023-06-22T13:08:10;32.50;99.90
563;DHT22;266;49.514;8.294;2023-06-22T13:10:39;32.20;99.90
563;DHT22;266;49.514;8.294;2023-06-22T13:13:08;32.20;99.90
563;DHT22;266;49.514;8.294;2023-06-22T13:15:36;32.50;99.90
563;DHT22;266;49.514;8.294;2023-06-22T13:18:04;32.70;99.90
563;DHT22;266;49.514;8.294;2023-06-22T13:20:32;33.20;99.90
563;DHT22;266;49.514;8.294;2023-06-22T13:23:00;33.20;99.90
563;DHT22;266;49.514;8.294;2023-06-22T13:25:27;33.30;99.90
563;DHT22;266;49.514;8.294;2023-06-22T13:27:56;33.40;99.90
563;DHT22;266;49.514;8.294;2023-06-22T13:30:25;33.50;99.90
563;DHT22;266;49.514;8.294;2023-06-22T13:32:53;33.40;99.90
563;DHT22;266;49.514;8.294;2023-06-22T13:35:21;33.40;99.90
563;DHT22;266;49.514;8.294;2023-06-22T13:38:06;33.40;99.90
563;DHT22;266;49.514;8.294;2023-06-22T13:40:37;33.50;99.90
563;DHT22;266;49.514;8.294;2023-06-22T13:43:05;33.50;99.90
563;DHT22;266;49.514;8.294;2023-06-22T13:45:52;33.50;99.90
563;DHT22;266;49.514;8.294;2023-06-22T13:48:20;33.40;99.90
563;DHT22;266;49.514;8.294;2023-06-22T13:51:07;33.40;99.90
563;DHT22;266;49.514;8.294;2023-06-22T13:53:35;33.80;99.90
563;DHT22;266;49.514;8.294;2023-06-22T13:56:03;33.80;99.90
563;DHT22;266;49.514;8.294;2023-06-22T13:58:31;33.50;99.90
563;DHT22;266;49.514;8.294;2023-06-22T14:01:00;33.10;99.90
563;DHT22;266;49.514;8.294;2023-06-22T14:03:28;33.00;99.90
563;DHT22;266;49.514;8.294;2023-06-22T14:05:59;32.80;99.90
563;DHT22;266;49.514;8.294;2023-06-22T14:08:27;32.50;99.90
563;DHT22;266;49.514;8.294;2023-06-22T14:10:58;32.30;99.90
563;DHT22;266;49.514;8.294;2023-06-22T14:13:27;32.00;99.90
563;DHT22;266;49.514;8.294;2023-06-22T14:15:54;31.70;99.90
563;DHT22;266;49.514;8.294;2023-06-22T14:18:24;31.50;99.90
563;DHT22;266;49.514;8.294;2023-06-22T14:20:52;31.30;99.90
563;DHT22;266;49.514;8.294;2023-06-22T14:23:20;31.20;99.90
563;DHT22;266;49.514;8.294;2023-06-22T14:25:47;31.10;99.90
563;DHT22;266;49.514;8.294;2023-06-22T14:28:15;31.00;99.90
563;DHT22;266;49.514;8.294;2023-06-22T14:30:44;30.80;99.90
563;DHT22;266;49.514;8.294;2023-06-22T14:33:12;30.70;99.90
563;DHT22;266;49.514;8.294;2023-06-22T14:35:42;30.80;99.90
563;DHT22;266;49.514;8.294;2023-06-22T14:38:10;31.00;99.90
563;DHT22;266;49.514;8.294;2023-06-22T14:40:38;31.10;99.90
563;DHT22;266;49.514;8.294;2023-06-22T14:43:26;31.10;99.90
563;DHT22;266;49.514;8.294;2023-06-22T14:45:54;30.90;99.90
563;DHT22;266;49.514;8.294;2023-06-22T14:48:22;30.80;99.90
563;DHT22;266;49.514;8.294;2023-06-22T14:50:51;30.60;99.90
563;DHT22;266;49.514;8.294;2023-06-22T14:53:22;30.50;99.90
563;DHT22;266;49.514;8.294;2023-06-22T14:56:00;30.40;99.90
563;DHT22;266;49.514;8.294;2023-06-22T14:58:28;30.30;99.90
563;DHT22;266;49.514;8.294;2023-06-22T15:00:59;30.30;99.90
563;DHT22;266;49.514;8.294;2023-06-22T15:03:27;30.20;99.90
563;DHT22;266;49.514;8.294;2023-06-22T15:06:00;30.10;99.90
563;DHT22;266;49.514;8.294;2023-06-22T15:08:29;30.20;99.90
563;DHT22;266;49.514;8.294;2023-06-22T15:10:59;30.30;99.90
563;DHT22;266;49.514;8.294;2023-06-22T15:13:29;30.30;99.90
563;DHT22;266;49.514;8.294;2023-06-22T15:15:59;30.50;99.90
563;DHT22;266;49.514;8.294;2023-06-22T15:18:29;30.70;99.90
563;DHT22;266;49.514;8.294;2023-06-22T15:20:57;30.70;99.90
563;DHT22;266;49.514;8.294;2023-06-22T15:23:27;30.40;99.90
563;DHT22;266;49.514;8.294;2023-06-22T15:25:56;30.10;99.90
563;DHT22;266;49.514;8.294;2023-06-22T15:28:25;30.00;99.90
563;DHT22;266;49.514;8.294;2023-06-22T15:30:54;29.70;99.90
563;DHT22;266;49.514;8.294;2023-06-22T15:33:24;29.60;99.90
563;DHT22;266;49.514;8.294;2023-06-22T15:35:52;29.50;99.90
563;DHT22;266;49.514;8.294;2023-06-22T15:38:21;29.30;99.90
563;DHT22;266;49.514;8.294;2023-06-22T15:40:50;29.20;99.90
563;DHT22;266;49.514;8.294;2023-06-22T15:43:21;29.10;99.90
563;DHT22;266;49.514;8.294;2023-06-22T15:45:57;29.00;99.90
563;DHT22;266;49.514;8.294;2023-06-22T15:48:27;28.90;99.90
563;DHT22;266;49.514;8.294;2023-06-22T15:50:55;28.90;99.90
563;DHT22;266;49.514;8.294;2023-06-22T15:53:23;28.80;99.90
563;DHT22;266;49.514;8.294;2023-06-22T15:55:53;28.80;99.90
563;DHT22;266;49.514;8.294;2023-06-22T15:58:21;28.90;99.90
563;DHT22;266;49.514;8.294;2023-06-22T16:00:49;28.80;99.90
563;DHT22;266;49.514;8.294;2023-06-22T16:03:19;28.80;99.90
563;DHT22;266;49.514;8.294;2023-06-22T16:05:47;28.90;99.90
563;DHT22;266;49.514;8.294;2023-06-22T16:08:15;28.90;99.90
563;DHT22;266;49.514;8.294;2023-06-22T16:10:44;29.10;99.90
563;DHT22;266;49.514;8.294;2023-06-22T16:13:14;29.30;99.90
563;DHT22;266;49.514;8.294;2023-06-22T16:15:43;29.30;99.90
563;DHT22;266;49.514;8.294;2023-06-22T16:18:11;29.20;99.90
563;DHT22;266;49.514;8.294;2023-06-22T16:20:39;29.20;99.90
563;DHT22;266;49.514;8.294;2023-06-22T16:23:07;29.10;99.90
563;DHT22;266;49.514;8.294;2023-06-22T16:25:35;29.10;99.90
563;DHT22;266;49.514;8.294;2023-06-22T16:28:03;29.00;99.90
563;DHT22;266;49.514;8.294;2023-06-22T16:30:33;28.90;99.90
563;DHT22;266;49.514;8.294;2023-06-22T16:33:01;28.90;99.90
563;DHT22;266;49.514;8.294;2023-06-22T16:35:30;28.50;99.90
563;DHT22;266;49.514;8.294;2023-06-22T16:38:00;28.00;99.90
563;DHT22;266;49.514;8.294;2023-06-22T16:40:28;27.30;99.90
563;DHT22;266;49.514;8.294;2023-06-22T16:42:56;26.80;99.90
563;DHT22;266;49.514;8.294;2023-06-22T16:45:25;26.50;99.90
563;DHT22;266;49.514;8.294;2023-06-22T16:47:54;26.20;99.90